sensor_id;sensor_type;location;lat;lon;timestamp;temperature;humidity
22984;DHT22;11658;48.908;9.140;2023-02-12T06:01:27;5.50;99.90
22984;DHT22;11658;48.908;9.140;2023-02-12T06:03:53;5.90;99.90
22984;DHT22;11658;48.908;9.140;2023-02-12T06:06:18;6.50;99.90
22984;DHT22;11658;48.908;9.140;2023-02-12T06:08:48;5.50;99.90
22984;DHT22;11658;48.908;9.140;2023-02-12T06:11:14;6.90;99.90
22984;DHT22;11658;48.908;9.140;2023-02-12T06:13:40;5.50;99.90
22984;DHT22;11658;48.908;9.140;2023-02-12T06:16:05;5.40;99.90
22984;DHT22;11658;48.908;9.140;2023-02-12T06:18:34;6.40;99.90
22984;DHT22;11658;48.908;9.140;2023-02-12T06:21:01;6.70;99.90
22984;DHT22;11658;48.908;9.140;2023-02-12T06:23:27;6.40;99.90
22984;DHT22;11658;48.908;9.140;2023-02-12T06:25:54;6.70;99.90
22984;DHT22;11658;48.908;9.140;2023-02-12T06:28:20;7.20;99.90
22984;DHT22;11658;48.908;9.140;2023-02-12T06:30:45;6.40;99.90
22984;DHT22;11658;48.908;9.140;2023-02-12T06:33:11;6.20;99.90
22984;DHT22;11658;48.908;9.140;2023-02-12T06:35:37;6.80;99.90
22984;DHT22;11658;48.908;9.140;2023-02-12T06:38:03;7.00;99.90
22984;DHT22;11658;48.908;9.140;2023-02-12T06:40:28;5.10;99.90
22984;DHT22;11658;48.908;9.140;2023-02-12T06:42:54;6.40;99.90
22984;DHT22;11658;48.908;9.140;2023-02-12T06:45:19;5.10;99.90
22984;DHT22;11658;48.908;9.140;2023-02-12T06:47:45;5.10;99.90
22984;DHT22;11658;48.908;9.140;2023-02-12T06:50:10;5.10;99.90
22984;DHT22;11658;48.908;9.140;2023-02-12T06:52:36;5.20;99.90
22984;DHT22;11658;48.908;9.140;2023-02-12T06:55:02;5.30;99.90
22984;DHT22;11658;48.908;9.140;2023-02-12T06:57:27;5.30;99.90
22984;DHT22;11658;48.908;9.140;2023-02-12T06:59:53;5.40;99.90
22984;DHT22;11658;48.908;9.140;2023-02-12T07:02:19;5.40;99.90
22984;DHT22;11658;48.908;9.140;2023-02-12T07:04:44;5.40;99.90
22984;DHT22;11658;48.908;9.140;2023-02-12T07:07:10;5.50;99.90
22984;DHT22;11658;48.908;9.140;2023-02-12T07:09:35;5.50;99.90
22984;DHT22;11658;48.908;9.140;2023-02-12T07:12:01;5.50;99.90
22984;DHT22;11658;48.908;9.140;2023-02-12T07:14:26;5.40;99.90
22984;DHT22;11658;48.908;9.140;2023-02-12T07:16:55;5.40;99.90
22984;DHT22;11658;48.908;9.140;2023-02-12T07:19:21;5.40;99.90
22984;DHT22;11658;48.908;9.140;2023-02-12T07:21:46;5.40;99.90
22984;DHT22;11658;48.908;9.140;2023-02-12T07:24:12;5.40;99.90
22984;DHT22;11658;48.908;9.140;2023-02-12T07:26:38;5.50;99.90
22984;DHT22;11658;48.908;9.140;2023-02-12T07:29:04;5.60;99.90
22984;DHT22;11658;48.908;9.140;2023-02-12T07:31:29;5.60;99.90
22984;DHT22;11658;48.908;9.140;2023-02-12T07:33:56;5.70;99.90
22984;DHT22;11658;48.908;9.140;2023-02-12T07:36:22;5.80;99.90
22984;DHT22;11658;48.908;9.140;2023-02-12T07:38:47;5.90;99.90
22984;DHT22;11658;48.908;9.140;2023-02-12T07:41:14;6.10;99.90
22984;DHT22;11658;48.908;9.140;2023-02-12T07:43:40;6.20;99.90
22984;DHT22;11658;48.908;9.140;2023-02-12T07:48:39;6.40;99.90
22984;DHT22;11658;48.908;9.140;2023-02-12T07:51:05;6.40;99.90
22984;DHT22;11658;48.908;9.140;2023-02-12T07:53:31;6.50;99.90
22984;DHT22;11658;48.908;9.140;2023-02-12T07:58:35;6.30;99.90
22984;DHT22;11658;48.908;9.140;2023-02-12T08:01:09;6.20;99.90
22984;DHT22;11658;48.908;9.140;2023-02-12T08:03:35;6.20;99.90
22984;DHT22;11658;48.908;9.140;2023-02-12T08:06:05;6.40;99.90
22984;DHT22;11658;48.908;9.140;2023-02-12T08:08:30;6.50;99.90
22984;DHT22;11658;48.908;9.140;2023-02-12T08:10:56;6.60;99.90
22984;DHT22;11658;48.908;9.140;2023-02-12T08:13:21;6.60;99.90
22984;DHT22;11658;48.908;9.140;2023-02-12T08:15:47;6.60;99.90
22984;DHT22;11658;48.908;9.140;2023-02-12T08:18:12;6.60;99.90
22984;DHT22;11658;48.908;9.140;2023-02-12T08:20:38;6.40;99.90
22984;DHT22;11658;48.908;9.140;2023-02-12T08:23:03;6.50;99.90
22984;DHT22;11658;48.908;9.140;2023-02-12T08:25:29;6.50;99.90
22984;DHT22;11658;48.908;9.140;2023-02-12T08:27:54;6.60;99.90
22984;DHT22;11658;48.908;9.140;2023-02-12T08:30:20;6.60;99.90
22984;DHT22;11658;48.908;9.140;2023-02-12T08:32:47;6.80;99.90
22984;DHT22;11658;48.908;9.140;2023-02-12T08:35:13;6.70;99.90
22984;DHT22;11658;48.908;9.140;2023-02-12T08:37:38;6.70;99.90
22984;DHT22;11658;48.908;9.140;2023-02-12T08:40:04;6.70;99.90
22984;DHT22;11658;48.908;9.140;2023-02-12T08:42:29;6.80;99.90
22984;DHT22;11658;48.908;9.140;2023-02-12T08:44:55;6.80;99.90
22984;DHT22;11658;48.908;9.140;2023-02-12T08:47:20;6.90;99.90
22984;DHT22;11658;48.908;9.140;2023-02-12T08:49:46;6.90;99.90
22984;DHT22;11658;48.908;9.140;2023-02-12T08:52:11;6.80;99.90
22984;DHT22;11658;48.908;9.140;2023-02-12T08:54:37;6.70;99.90
22984;DHT22;11658;48.908;9.140;2023-02-12T08:57:02;6.60;99.90
22984;DHT22;11658;48.908;9.140;2023-02-12T08:59:28;6.70;99.90
22984;DHT22;11658;48.908;9.140;2023-02-12T09:01:54;6.90;99.90
22984;DHT22;11658;48.908;9.140;2023-02-12T09:04:21;7.00;99.90
22984;DHT22;11658;48.908;9.140;2023-02-12T09:06:46;6.90;99.90
22984;DHT22;11658;48.908;9.140;2023-02-12T09:09:13;7.00;99.90
22984;DHT22;11658;48.908;9.140;2023-02-12T09:11:38;7.00;99.90
22984;DHT22;11658;48.908;9.140;2023-02-12T09:14:05;6.80;99.90
22984;DHT22;11658;48.908;9.140;2023-02-12T09:16:32;6.80;99.90
22984;DHT22;11658;48.908;9.140;2023-02-12T09:18:58;6.70;99.90
22984;DHT22;11658;48.908;9.140;2023-02-12T09:21:24;6.80;99.90
22984;DHT22;11658;48.908;9.140;2023-02-12T09:23:50;7.10;99.90
22984;DHT22;11658;48.908;9.140;2023-02-12T09:26:19;7.20;99.90
22984;DHT22;11658;48.908;9.140;2023-02-12T09:28:45;7.30;99.90
22984;DHT22;11658;48.908;9.140;2023-02-12T09:31:12;7.30;99.90
22984;DHT22;11658;48.908;9.140;2023-02-12T09:33:38;7.40;99.90
22984;DHT22;11658;48.908;9.140;2023-02-12T09:36:04;7.50;99.90
22984;DHT22;11658;48.908;9.140;2023-02-12T09:38:30;7.70;99.90
22984;DHT22;11658;48.908;9.140;2023-02-12T09:49:02;8.30;99.90
22984;DHT22;11658;48.908;9.140;2023-02-12T09:51:32;8.30;99.90
22984;DHT22;11658;48.908;9.140;2023-02-12T09:54:09;8.40;99.90
22984;DHT22;11658;48.908;9.140;2023-02-12T09:56:36;8.30;99.90
22984;DHT22;11658;48.908;9.140;2023-02-12T09:59:06;8.30;99.90
22984;DHT22;11658;48.908;9.140;2023-02-12T10:01:32;8.40;99.90
22984;DHT22;11658;48.908;9.140;2023-02-12T10:03:58;8.20;99.90
22984;DHT22;11658;48.908;9.140;2023-02-12T10:06:24;8.30;99.90
22984;DHT22;11658;48.908;9.140;2023-02-12T10:09:10;8.40;99.90
22984;DHT22;11658;48.908;9.140;2023-02-12T10:11:41;8.50;99.90
22984;DHT22;11658;48.908;9.140;2023-02-12T10:26:46;9.00;99.90
22984;DHT22;11658;48.908;9.140;2023-02-12T10:29:15;9.00;99.90
22984;DHT22;11658;48.908;9.140;2023-02-12T10:31:43;8.90;99.90
22984;DHT22;11658;48.908;9.140;2023-02-12T10:34:14;8.90;99.90
22984;DHT22;11658;48.908;9.140;2023-02-12T10:36:41;9.10;99.90
22984;DHT22;11658;48.908;9.140;2023-02-12T10:39:30;9.40;99.90
22984;DHT22;11658;48.908;9.140;2023-02-12T10:44:21;8.90;99.90
22984;DHT22;11658;48.908;9.140;2023-02-12T10:46:47;9.00;99.90
22984;DHT22;11658;48.908;9.140;2023-02-12T10:49:14;9.00;99.90
22984;DHT22;11658;48.908;9.140;2023-02-12T10:51:58;9.10;99.90
22984;DHT22;11658;48.908;9.140;2023-02-12T10:54:32;9.10;99.90
22984;DHT22;11658;48.908;9.140;2023-02-12T10:56:58;9.10;99.90
22984;DHT22;11658;48.908;9.140;2023-02-12T10:59:24;9.00;99.90
22984;DHT22;11658;48.908;9.140;2023-02-12T11:01:49;8.90;99.90
22984;DHT22;11658;48.908;9.140;2023-02-12T11:09:28;9.10;99.90
22984;DHT22;11658;48.908;9.140;2023-02-12T11:11:53;9.30;99.90
22984;DHT22;11658;48.908;9.140;2023-02-12T11:14:19;9.50;99.90
22984;DHT22;11658;48.908;9.140;2023-02-12T11:16:50;9.40;99.90
22984;DHT22;11658;48.908;9.140;2023-02-12T11:19:29;9.10;99.90
22984;DHT22;11658;48.908;9.140;2023-02-12T11:22:11;8.80;99.90
22984;DHT22;11658;48.908;9.140;2023-02-12T11:24:43;8.90;99.90
22984;DHT22;11658;48.908;9.140;2023-02-12T11:29:37;9.20;99.90
22984;DHT22;11658;48.908;9.140;2023-02-12T11:32:04;9.40;99.90
22984;DHT22;11658;48.908;9.140;2023-02-12T11:34:29;9.60;99.90
22984;DHT22;11658;48.908;9.140;2023-02-12T11:36:55;9.40;99.90
22984;DHT22;11658;48.908;9.140;2023-02-12T11:39:44;9.30;99.90
22984;DHT22;11658;48.908;9.140;2023-02-12T11:42:17;9.40;99.90
22984;DHT22;11658;48.908;9.140;2023-02-12T11:44:47;9.40;99.90
22984;DHT22;11658;48.908;9.140;2023-02-12T11:47:19;9.30;99.90
22984;DHT22;11658;48.908;9.140;2023-02-12T11:50:01;9.30;99.90
22984;DHT22;11658;48.908;9.140;2023-02-12T11:52:28;9.40;99.90
22984;DHT22;11658;48.908;9.140;2023-02-12T11:54:59;9.40;99.90
22984;DHT22;11658;48.908;9.140;2023-02-12T11:57:35;9.50;99.90
22984;DHT22;11658;48.908;9.140;2023-02-12T12:00:02;9.50;99.90
22984;DHT22;11658;48.908;9.140;2023-02-12T12:02:31;9.40;99.90
22984;DHT22;11658;48.908;9.140;2023-02-12T12:05:07;9.40;99.90
22984;DHT22;11658;48.908;9.140;2023-02-12T12:07:33;9.80;99.90
22984;DHT22;11658;48.908;9.140;2023-02-12T12:12:46;10.30;99.90
22984;DHT22;11658;48.908;9.140;2023-02-12T12:24:03;10.80;99.90
22984;DHT22;11658;48.908;9.140;2023-02-12T12:26:32;10.60;99.90
22984;DHT22;11658;48.908;9.140;2023-02-12T12:29:09;10.10;99.90
22984;DHT22;11658;48.908;9.140;2023-02-12T12:31:40;9.80;99.90
22984;DHT22;11658;48.908;9.140;2023-02-12T12:34:19;9.70;99.90
22984;DHT22;11658;48.908;9.140;2023-02-12T12:47:55;10.40;99.90
22984;DHT22;11658;48.908;9.140;2023-02-12T12:58:21;10.20;99.90
22984;DHT22;11658;48.908;9.140;2023-02-12T13:28:03;9.70;99.90
22984;DHT22;11658;48.908;9.140;2023-02-12T13:30:38;9.50;99.90
22984;DHT22;11658;48.908;9.140;2023-02-12T13:33:11;9.40;99.90
22984;DHT22;11658;48.908;9.140;2023-02-12T13:35:44;9.50;99.90
22984;DHT22;11658;48.908;9.140;2023-02-12T13:38:18;9.60;99.90
22984;DHT22;11658;48.908;9.140;2023-02-12T13:40:46;9.50;99.90
22984;DHT22;11658;48.908;9.140;2023-02-12T13:43:29;9.40;99.90
22984;DHT22;11658;48.908;9.140;2023-02-12T13:49:20;9.50;99.90
22984;DHT22;11658;48.908;9.140;2023-02-12T13:57:02;9.70;99.90
22984;DHT22;11658;48.908;9.140;2023-02-12T14:04:44;9.90;99.90
22984;DHT22;11658;48.908;9.140;2023-02-12T14:07:12;9.90;99.90
22984;DHT22;11658;48.908;9.140;2023-02-12T14:09:58;10.00;99.90
22984;DHT22;11658;48.908;9.140;2023-02-12T14:15:08;10.00;99.90
22984;DHT22;11658;48.908;9.140;2023-02-12T14:37:56;9.80;99.90
22984;DHT22;11658;48.908;9.140;2023-02-12T14:43:01;9.60;99.90
22984;DHT22;11658;48.908;9.140;2023-02-12T14:45:35;9.70;99.90
22984;DHT22;11658;48.908;9.140;2023-02-12T14:48:02;9.70;99.90
22984;DHT22;11658;48.908;9.140;2023-02-12T14:50:38;9.60;99.90
22984;DHT22;11658;48.908;9.140;2023-02-12T14:53:22;9.60;99.90
22984;DHT22;11658;48.908;9.140;2023-02-12T14:55:50;9.70;99.90
22984;DHT22;11658;48.908;9.140;2023-02-12T14:58:19;9.90;99.90
22984;DHT22;11658;48.908;9.140;2023-02-12T15:00:46;10.00;99.90
22984;DHT22;11658;48.908;9.140;2023-02-12T15:22:00;9.90;99.90
22984;DHT22;11658;48.908;9.140;2023-02-12T15:24:26;9.80;99.90
22984;DHT22;11658;48.908;9.140;2023-02-12T15:26:55;9.80;99.90
22984;DHT22;11658;48.908;9.140;2023-02-12T15:29:35;9.90;99.90
22984;DHT22;11658;48.908;9.140;2023-02-12T15:32:07;9.90;99.90
22984;DHT22;11658;48.908;9.140;2023-02-12T15:34:36;9.90;99.90
22984;DHT22;11658;48.908;9.140;2023-02-12T15:37:07;9.90;99.90
22984;DHT22;11658;48.908;9.140;2023-02-12T15:39:41;9.80;99.90
22984;DHT22;11658;48.908;9.140;2023-02-12T15:42:36;9.80;99.90
22984;DHT22;11658;48.908;9.140;2023-02-12T15:47:41;9.70;99.90
22984;DHT22;11658;48.908;9.140;2023-02-12T15:50:15;9.60;99.90
22984;DHT22;11658;48.908;9.140;2023-02-12T15:52:44;9.50;99.90
22984;DHT22;11658;48.908;9.140;2023-02-12T15:55:19;9.50;99.90
22984;DHT22;11658;48.908;9.140;2023-02-12T15:57:58;9.50;99.90
22984;DHT22;11658;48.908;9.140;2023-02-12T16:00:42;9.40;99.90
22984;DHT22;11658;48.908;9.140;2023-02-12T16:03:37;9.40;99.90
22984;DHT22;11658;48.908;9.140;2023-02-12T16:06:05;9.40;99.90
22984;DHT22;11658;48.908;9.140;2023-02-12T16:08:36;9.40;99.90
22984;DHT22;11658;48.908;9.140;2023-02-12T16:11:03;9.30;99.90
22984;DHT22;11658;48.908;9.140;2023-02-12T16:14:01;9.30;99.90
22984;DHT22;11658;48.908;9.140;2023-02-12T16:16:27;9.20;99.90
22984;DHT22;11658;48.908;9.140;2023-02-12T16:21:48;9.00;99.90
22984;DHT22;11658;48.908;9.140;2023-02-12T16:26:50;8.80;99.90
22984;DHT22;11658;48.908;9.140;2023-02-12T16:29:17;8.70;99.90
22984;DHT22;11658;48.908;9.140;2023-02-12T16:31:55;8.60;99.90
22984;DHT22;11658;48.908;9.140;2023-02-12T16:34:56;8.50;99.90
22984;DHT22;11658;48.908;9.140;2023-02-12T16:42:34;8.20;99.90
22984;DHT22;11658;48.908;9.140;2023-02-12T16:45:00;8.10;99.90
22984;DHT22;11658;48.908;9.140;2023-02-12T16:47:25;8.10;99.90
22984;DHT22;11658;48.908;9.140;2023-02-12T16:49:57;8.00;99.90
22984;DHT22;11658;48.908;9.140;2023-02-12T16:52:37;7.90;99.90
22984;DHT22;11658;48.908;9.140;2023-02-12T16:55:05;8.30;99.90
22984;DHT22;11658;48.908;9.140;2023-02-12T16:57:32;7.70;99.90
22984;DHT22;11658;48.908;9.140;2023-02-12T16:59:57;7.60;99.90
22984;DHT22;11658;48.908;9.140;2023-02-12T17:02:23;7.60;99.90
22984;DHT22;11658;48.908;9.140;2023-02-12T17:04:48;7.50;99.90
22984;DHT22;11658;48.908;9.140;2023-02-12T17:07:23;7.50;99.90
22984;DHT22;11658;48.908;9.140;2023-02-12T17:09:48;7.50;99.90
22984;DHT22;11658;48.908;9.140;2023-02-12T17:12:14;7.40;99.90
22984;DHT22;11658;48.908;9.140;2023-02-12T17:14:40;7.40;99.90
22984;DHT22;11658;48.908;9.140;2023-02-12T17:17:06;7.30;99.90
22984;DHT22;11658;48.908;9.140;2023-02-12T17:19:32;7.30;99.90
22984;DHT22;11658;48.908;9.140;2023-02-12T17:21:57;7.80;99.90
22984;DHT22;11658;48.908;9.140;2023-02-12T17:24:25;7.30;99.90
22984;DHT22;11658;48.908;9.140;2023-02-12T17:26:52;7.30;99.90
22984;DHT22;11658;48.908;9.140;2023-02-12T17:29:20;7.20;99.90
22984;DHT22;11658;48.908;9.140;2023-02-12T17:31:46;7.10;99.90
22984;DHT22;11658;48.908;9.140;2023-02-12T17:34:18;7.00;99.90
22984;DHT22;11658;48.908;9.140;2023-02-12T17:36:43;6.90;99.90
22984;DHT22;11658;48.908;9.140;2023-02-12T17:39:11;6.90;99.90
22984;DHT22;11658;48.908;9.140;2023-02-12T17:41:37;6.80;99.90
22984;DHT22;11658;48.908;9.140;2023-02-12T17:44:03;6.80;99.90
22984;DHT22;11658;48.908;9.140;2023-02-12T17:46:29;6.70;99.90
22984;DHT22;11658;48.908;9.140;2023-02-12T17:48:55;6.60;99.90
22984;DHT22;11658;48.908;9.140;2023-02-12T17:51:21;6.60;99.90
22984;DHT22;11658;48.908;9.140;2023-02-12T17:53:47;6.60;99.90
22984;DHT22;11658;48.908;9.140;2023-02-12T17:56:18;6.60;99.90
22984;DHT22;11658;48.908;9.140;2023-02-12T17:58:45;6.50;99.90
22984;DHT22;11658;48.908;9.140;2023-02-12T18:01:16;6.50;99.90
22984;DHT22;11658;48.908;9.140;2023-02-12T18:03:42;6.40;99.90
22984;DHT22;11658;48.908;9.140;2023-02-12T18:06:08;6.40;99.90
22984;DHT22;11658;48.908;9.140;2023-02-12T18:08:35;6.40;99.90
22984;DHT22;11658;48.908;9.140;2023-02-12T18:11:05;6.40;99.90
22984;DHT22;11658;48.908;9.140;2023-02-12T18:13:31;6.40;99.90
22984;DHT22;11658;48.908;9.140;2023-02-12T18:15:57;6.40;99.90
22984;DHT22;11658;48.908;9.140;2023-02-12T18:18:22;6.30;99.90
22984;DHT22;11658;48.908;9.140;2023-02-12T18:20:48;6.20;99.90
22984;DHT22;11658;48.908;9.140;2023-02-12T18:23:14;6.10;99.90
22984;DHT22;11658;48.908;9.140;2023-02-12T18:25:43;6.00;99.90
22984;DHT22;11658;48.908;9.140;2023-02-12T18:28:09;5.90;99.90
22984;DHT22;11658;48.908;9.140;2023-02-12T18:30:36;5.80;99.90
22984;DHT22;11658;48.908;9.140;2023-02-12T18:33:04;5.70;99.90
22984;DHT22;11658;48.908;9.140;2023-02-12T18:35:30;5.70;99.90
22984;DHT22;11658;48.908;9.140;2023-02-12T18:37:56;5.70;99.90
22984;DHT22;11658;48.908;9.140;2023-02-12T18:40:21;5.70;99.90
22984;DHT22;11658;48.908;9.140;2023-02-12T18:42:47;5.60;99.90
22984;DHT22;11658;48.908;9.140;2023-02-12T18:45:12;5.60;99.90
22984;DHT22;11658;48.908;9.140;2023-02-12T18:47:38;5.60;99.90
22984;DHT22;11658;48.908;9.140;2023-02-12T18:50:04;5.50;99.90
22984;DHT22;11658;48.908;9.140;2023-02-12T18:52:30;5.50;99.90
22984;DHT22;11658;48.908;9.140;2023-02-12T18:54:56;5.50;99.90
22984;DHT22;11658;48.908;9.140;2023-02-12T18:57:22;5.40;99.90
22984;DHT22;11658;48.908;9.140;2023-02-12T18:59:47;5.30;99.90
22984;DHT22;11658;48.908;9.140;2023-02-12T19:02:13;5.30;99.90
22984;DHT22;11658;48.908;9.140;2023-02-12T19:04:39;5.20;99.90
22984;DHT22;11658;48.908;9.140;2023-02-12T19:07:04;5.10;99.90
22984;DHT22;11658;48.908;9.140;2023-02-12T19:09:31;5.00;99.90
22984;DHT22;11658;48.908;9.140;2023-02-12T19:11:58;5.00;99.90
22984;DHT22;11658;48.908;9.140;2023-02-12T19:14:25;4.90;99.90
22984;DHT22;11658;48.908;9.140;2023-02-12T19:16:51;4.80;99.90
22984;DHT22;11658;48.908;9.140;2023-02-12T19:19:18;4.70;99.90
22984;DHT22;11658;48.908;9.140;2023-02-12T19:21:45;4.60;99.90
22984;DHT22;11658;48.908;9.140;2023-02-12T19:24:13;4.60;99.90
22984;DHT22;11658;48.908;9.140;2023-02-12T19:26:39;4.50;99.90
22984;DHT22;11658;48.908;9.140;2023-02-12T19:29:05;4.50;99.90
22984;DHT22;11658;48.908;9.140;2023-02-12T19:31:34;4.20;99.90
22984;DHT22;11658;48.908;9.140;2023-02-12T19:34:06;4.30;99.90
22984;DHT22;11658;48.908;9.140;2023-02-12T19:36:33;4.30;99.90
22984;DHT22;11658;48.908;9.140;2023-02-12T19:38:59;4.20;99.90
22984;DHT22;11658;48.908;9.140;2023-02-12T19:41:26;4.10;99.90
22984;DHT22;11658;48.908;9.140;2023-02-12T19:43:57;4.10;99.90
22984;DHT22;11658;48.908;9.140;2023-02-12T19:46:25;4.00;99.90
22984;DHT22;11658;48.908;9.140;2023-02-12T19:48:55;4.00;99.90
22984;DHT22;11658;48.908;9.140;2023-02-12T19:51:21;3.90;99.90
22984;DHT22;11658;48.908;9.140;2023-02-12T19:53:49;3.80;99.90
22984;DHT22;11658;48.908;9.140;2023-02-12T19:56:15;3.80;99.90
22984;DHT22;11658;48.908;9.140;2023-02-12T19:58:42;3.80;99.90
22984;DHT22;11658;48.908;9.140;2023-02-12T20:01:12;3.80;99.90
22984;DHT22;11658;48.908;9.140;2023-02-12T20:03:38;3.70;99.90
22984;DHT22;11658;48.908;9.140;2023-02-12T20:06:06;3.70;99.90
22984;DHT22;11658;48.908;9.140;2023-02-12T20:08:35;3.70;99.90
22984;DHT22;11658;48.908;9.140;2023-02-12T20:11:19;3.60;99.90
22984;DHT22;11658;48.908;9.140;2023-02-12T20:13:44;3.60;99.90
22984;DHT22;11658;48.908;9.140;2023-02-12T20:16:16;3.50;99.90
22984;DHT22;11658;48.908;9.140;2023-02-12T20:18:43;3.50;99.90
22984;DHT22;11658;48.908;9.140;2023-02-12T20:21:11;3.40;99.90
22984;DHT22;11658;48.908;9.140;2023-02-12T20:23:37;3.40;99.90
22984;DHT22;11658;48.908;9.140;2023-02-12T20:26:04;3.40;99.90
22984;DHT22;11658;48.908;9.140;2023-02-12T20:28:30;3.40;99.90
22984;DHT22;11658;48.908;9.140;2023-02-12T20:30:56;3.30;99.90
22984;DHT22;11658;48.908;9.140;2023-02-12T20:33:21;3.30;99.90
22984;DHT22;11658;48.908;9.140;2023-02-12T20:35:54;3.30;99.90
22984;DHT22;11658;48.908;9.140;2023-02-12T20:38:21;3.30;99.90
22984;DHT22;11658;48.908;9.140;2023-02-12T20:40:46;3.20;99.90
22984;DHT22;11658;48.908;9.140;2023-02-12T20:43:12;3.20;99.90
22984;DHT22;11658;48.908;9.140;2023-02-12T20:45:37;3.10;99.90
22984;DHT22;11658;48.908;9.140;2023-02-12T20:48:03;3.10;99.90
22984;DHT22;11658;48.908;9.140;2023-02-12T20:50:29;3.10;99.90
22984;DHT22;11658;48.908;9.140;2023-02-12T20:52:54;3.10;99.90
22984;DHT22;11658;48.908;9.140;2023-02-12T20:55:20;3.10;99.90
22984;DHT22;11658;48.908;9.140;2023-02-12T20:57:45;3.20;99.90
22984;DHT22;11658;48.908;9.140;2023-02-12T21:00:14;3.20;99.90
22984;DHT22;11658;48.908;9.140;2023-02-12T21:02:40;3.40;99.90
22984;DHT22;11658;48.908;9.140;2023-02-12T21:05:06;3.50;99.90
22984;DHT22;11658;48.908;9.140;2023-02-12T21:07:32;3.50;99.90
22984;DHT22;11658;48.908;9.140;2023-02-12T21:09:57;3.60;99.90
22984;DHT22;11658;48.908;9.140;2023-02-12T21:12:23;3.50;99.90
22984;DHT22;11658;48.908;9.140;2023-02-12T21:14:48;3.60;99.90
22984;DHT22;11658;48.908;9.140;2023-02-12T21:17:14;3.60;99.90
22984;DHT22;11658;48.908;9.140;2023-02-12T21:19:39;3.70;99.90
22984;DHT22;11658;48.908;9.140;2023-02-12T21:22:05;3.70;99.90
22984;DHT22;11658;48.908;9.140;2023-02-12T21:24:31;3.80;99.90
22984;DHT22;11658;48.908;9.140;2023-02-12T21:26:58;3.80;99.90
22984;DHT22;11658;48.908;9.140;2023-02-12T21:29:23;3.80;99.90
22984;DHT22;11658;48.908;9.140;2023-02-12T21:31:51;3.80;99.90
22984;DHT22;11658;48.908;9.140;2023-02-12T21:34:20;3.90;99.90
22984;DHT22;11658;48.908;9.140;2023-02-12T21:36:47;3.90;99.90
22984;DHT22;11658;48.908;9.140;2023-02-12T21:39:17;3.90;99.90
22984;DHT22;11658;48.908;9.140;2023-02-12T21:41:50;3.90;99.90
22984;DHT22;11658;48.908;9.140;2023-02-12T21:44:18;3.90;99.90
22984;DHT22;11658;48.908;9.140;2023-02-12T21:46:45;3.90;99.90
22984;DHT22;11658;48.908;9.140;2023-02-12T21:49:15;3.90;99.90
22984;DHT22;11658;48.908;9.140;2023-02-12T21:51:49;3.80;99.90
22984;DHT22;11658;48.908;9.140;2023-02-12T21:54:15;3.80;99.90
22984;DHT22;11658;48.908;9.140;2023-02-12T21:56:42;3.80;99.90
22984;DHT22;11658;48.908;9.140;2023-02-12T21:59:09;3.80;99.90
